createdAt,value
2023-03-29T00:01:35.371Z,93385.78
2023-03-29T00:04:40.140Z,93385.06
2023-03-29T00:07:45.171Z,93383.63
2023-03-29T00:10:50.394Z,93387.06
2023-03-29T00:13:55.215Z,93385.88
2023-03-29T00:16:59.505Z,93383.16
2023-03-29T00:20:04.125Z,93386.63
2023-03-29T00:23:07.827Z,93391.03
2023-03-29T00:26:12.678Z,93392.94
2023-03-29T00:29:17.195Z,93384.69
2023-03-29T00:32:20.846Z,93394.22
2023-03-29T00:35:24.491Z,93396.44
2023-03-29T00:38:29.518Z,93398.47
2023-03-29T00:41:33.127Z,93401.16
2023-03-29T00:44:57.345Z,93394.81
2023-03-29T00:48:05.348Z,93398.16
2023-03-29T00:51:13.238Z,93403.06
2023-03-29T00:54:20.263Z,93400.56
2023-03-29T00:57:27.802Z,93395.50
2023-03-29T01:00:36.343Z,93402.91
2023-03-29T01:04:25.083Z,93400.72
2023-03-29T01:07:51.657Z,93402.50
2023-03-29T01:11:17.708Z,93400.66
2023-03-29T01:14:30.527Z,93392.41
2023-03-29T01:17:34.144Z,93401.19
2023-03-29T01:21:05.941Z,93397.16
2023-03-29T01:24:11.981Z,93394.53
2023-03-29T01:27:33.490Z,93408.47
2023-03-29T01:31:02.878Z,93407.19
2023-03-29T01:34:15.755Z,93403.22
2023-03-29T01:37:40.269Z,93410.09
2023-03-29T01:40:43.264Z,93425.28
2023-03-29T01:43:50.674Z,93419.19
2023-03-29T01:47:03.385Z,93416.53
2023-03-29T01:50:43.915Z,93430.66
2023-03-29T01:53:53.674Z,93424.59
2023-03-29T01:56:58.059Z,93433.03
2023-03-29T02:00:08.810Z,93425.66
2023-03-29T02:03:18.544Z,93433.94
2023-03-29T02:06:27.661Z,93433.25
2023-03-29T02:09:32.960Z,93428.78
2023-03-29T02:12:39.763Z,93436.75
2023-03-29T02:15:46.622Z,93433.88
2023-03-29T02:18:53.404Z,93441.91
2023-03-29T02:22:04.983Z,93434.97
2023-03-29T02:25:10.079Z,93440.59
2023-03-29T02:28:15.577Z,93443.44
2023-03-29T02:31:58.505Z,93436.72
2023-03-29T02:35:17.624Z,93432.66
2023-03-29T02:38:21.488Z,93423.75
2023-03-29T02:41:26.129Z,93415.00
2023-03-29T02:44:33.788Z,93420.31
2023-03-29T02:47:43.010Z,93424.03
2023-03-29T02:50:49.699Z,93428.41
2023-03-29T02:54:00.225Z,93416.81
2023-03-29T02:57:09.159Z,93419.28
2023-03-29T03:00:13.161Z,93423.22
2023-03-29T03:03:16.280Z,93421.59
2023-03-29T03:06:25.112Z,93426.84
2023-03-29T03:09:28.890Z,93430.78
2023-03-29T03:12:32.282Z,93426.06
2023-03-29T03:15:43.324Z,93426.81
2023-03-29T03:18:47.052Z,93430.91
2023-03-29T03:21:51.586Z,93427.97
2023-03-29T03:24:55.075Z,93430.22
2023-03-29T03:27:58.074Z,93425.50
2023-03-29T03:31:01.485Z,93432.28
2023-03-29T03:34:28.647Z,93422.38
2023-03-29T03:37:34.192Z,93430.63
2023-03-29T03:40:37.309Z,93429.03
2023-03-29T03:43:43.716Z,93431.50
2023-03-29T03:46:47.291Z,93421.41
2023-03-29T03:49:52.550Z,93423.06
2023-03-29T03:53:00.358Z,93407.50
2023-03-29T03:56:15.232Z,93424.28
2023-03-29T03:59:35.295Z,93417.56
2023-03-29T04:02:47.655Z,93425.19
2023-03-29T04:05:51.630Z,93418.41
2023-03-29T04:08:57.957Z,93432.66
2023-03-29T04:12:11.246Z,93421.69
2023-03-29T04:15:18.801Z,93410.78
2023-03-29T04:18:29.213Z,93405.91
2023-03-29T04:21:35.376Z,93406.03
2023-03-29T04:24:38.376Z,93406.19
2023-03-29T04:28:08.291Z,93412.25
2023-03-29T04:31:22.014Z,93399.78
2023-03-29T04:34:48.348Z,93401.66
2023-03-29T04:37:55.047Z,93397.41
2023-03-29T04:41:02.433Z,93405.78
2023-03-29T04:44:24.608Z,93401.22
2023-03-29T04:47:30.657Z,93412.25
2023-03-29T04:50:40.591Z,93415.38
2023-03-29T04:53:44.396Z,93404.44
2023-03-29T04:56:48.121Z,93399.63
2023-03-29T05:00:18.060Z,93402.22
2023-03-29T05:03:44.406Z,93394.38
2023-03-29T05:06:59.260Z,93390.25
2023-03-29T05:10:02.960Z,93389.13
2023-03-29T05:13:07.832Z,93380.00
2023-03-29T05:16:11.854Z,93378.16
2023-03-29T05:19:15.259Z,93373.66
2023-03-29T05:22:23.952Z,93374.53
2023-03-29T05:25:28.067Z,93361.53
2023-03-29T05:28:31.433Z,93371.03
2023-03-29T05:31:38.811Z,93354.06
2023-03-29T05:34:43.994Z,93385.13
2023-03-29T05:37:48.240Z,93373.69
2023-03-29T05:40:53.522Z,93373.22
2023-03-29T05:44:03.354Z,93372.88
2023-03-29T05:47:08.385Z,93368.00
2023-03-29T05:50:12.900Z,93380.47
2023-03-29T05:53:17.500Z,93376.69
2023-03-29T05:56:20.908Z,93389.03
2023-03-29T05:59:25.085Z,93379.94
2023-03-29T06:02:29.424Z,93373.66
2023-03-29T06:05:33.520Z,93379.63
2023-03-29T06:08:37.491Z,93382.91
2023-03-29T06:12:04.604Z,93375.53
2023-03-29T06:15:14.993Z,93372.44
2023-03-29T06:18:41.720Z,93365.44
2023-03-29T06:21:45.792Z,93354.69
2023-03-29T06:24:52.872Z,93365.19
2023-03-29T06:28:02.030Z,93369.03
2023-03-29T06:31:05.834Z,93366.41
2023-03-29T06:34:14.826Z,93360.44
2023-03-29T06:37:35.313Z,93373.84
2023-03-29T06:41:06.858Z,93368.09
2023-03-29T06:44:30.181Z,93363.94
2023-03-29T06:47:41.938Z,93372.50
2023-03-29T06:50:46.790Z,93373.16
2023-03-29T06:53:52.019Z,93377.34
2023-03-29T06:56:58.034Z,93373.94
2023-03-29T07:00:02.686Z,93374.56
2023-03-29T07:03:28.471Z,93374.22
2023-03-29T07:06:32.884Z,93378.03
2023-03-29T07:09:40.445Z,93372.50
2023-03-29T07:13:02.677Z,93372.41
2023-03-29T07:16:06.104Z,93381.63
2023-03-29T07:19:25.297Z,93379.94
2023-03-29T07:22:31.394Z,93372.13
2023-03-29T07:29:06.981Z,93378.44
2023-03-29T07:32:11.043Z,93373.13
2023-03-29T07:35:18.841Z,93381.31
2023-03-29T07:38:22.837Z,93372.22
2023-03-29T07:41:36.757Z,93383.78
2023-03-29T07:44:49.435Z,93382.59
2023-03-29T07:48:00.054Z,93387.88
2023-03-29T07:51:15.833Z,93381.88
2023-03-29T07:54:32.947Z,93393.72
2023-03-29T07:57:51.610Z,93387.50
2023-03-29T08:00:55.535Z,93379.94
2023-03-29T08:04:34.968Z,93384.16
2023-03-29T08:07:54.152Z,93368.81
2023-03-29T08:11:01.951Z,93368.16
2023-03-29T08:14:29.325Z,93365.34
2023-03-29T08:17:54.341Z,93383.22
2023-03-29T08:20:57.789Z,93386.91
2023-03-29T08:24:00.812Z,93379.59
2023-03-29T08:27:13.269Z,93381.53
2023-03-29T08:30:17.560Z,93370.63
2023-03-29T08:33:20.608Z,93381.09
2023-03-29T08:36:30.826Z,93372.09
2023-03-29T08:39:40.124Z,93368.50
2023-03-29T08:43:29.469Z,93378.66
2023-03-29T08:46:53.025Z,93366.13
2023-03-29T08:50:17.812Z,93367.88
2023-03-29T08:53:23.930Z,93374.97
2023-03-29T08:56:47.124Z,93371.78
2023-03-29T09:00:33.100Z,93365.97
2023-03-29T09:04:10.599Z,93361.16
2023-03-29T09:07:37.279Z,93363.41
2023-03-29T09:10:55.506Z,93368.38
2023-03-29T09:14:23.622Z,93360.63
2023-03-29T09:17:53.207Z,93365.66
2023-03-29T09:21:14.010Z,93361.19
2023-03-29T09:24:26.874Z,93372.28
2023-03-29T09:28:03.235Z,93358.38
2023-03-29T09:31:40.122Z,93362.31
2023-03-29T09:34:47.502Z,93362.41
2023-03-29T09:37:56.288Z,93365.19
2023-03-29T09:41:22.068Z,93366.72
2023-03-29T09:44:32.351Z,93361.16
2023-03-29T09:48:03.455Z,93359.53
2023-03-29T09:51:11.009Z,93366.97
2023-03-29T09:54:16.335Z,93356.97
2023-03-29T09:57:39.171Z,93366.97
2023-03-29T10:00:43.354Z,93360.63
2023-03-29T10:03:52.478Z,93363.84
2023-03-29T10:07:00.643Z,93368.47
2023-03-29T10:10:11.395Z,93359.50
2023-03-29T10:13:23.602Z,93366.66
2023-03-29T10:16:40.719Z,93358.97
2023-03-29T10:19:51.047Z,93354.25
2023-03-29T10:22:59.820Z,93362.66
2023-03-29T10:26:34.465Z,93369.31
2023-03-29T10:29:43.198Z,93364.50
2023-03-29T10:32:47.651Z,93366.75
2023-03-29T10:35:52.567Z,93363.06
2023-03-29T10:38:59.866Z,93363.97
2023-03-29T10:42:06.020Z,93358.78
2023-03-29T10:45:22.219Z,93367.88
2023-03-29T10:51:57.594Z,93374.06
2023-03-29T10:55:00.997Z,93376.25
2023-03-29T10:58:43.180Z,93381.59
2023-03-29T11:01:58.808Z,93383.59
2023-03-29T11:05:06.498Z,93384.22
2023-03-29T11:08:30.413Z,93384.81
2023-03-29T11:11:46.226Z,93378.75
2023-03-29T11:14:49.166Z,93389.81
2023-03-29T11:18:10.584Z,93383.09
2023-03-29T11:21:24.314Z,93387.66
2023-03-29T11:24:47.426Z,93392.28
2023-03-29T11:28:14.646Z,93397.47
2023-03-29T11:31:38.345Z,93400.88
2023-03-29T11:35:01.602Z,93399.31
2023-03-29T11:41:42.249Z,93407.78
2023-03-29T11:44:49.447Z,93400.88
2023-03-29T11:47:55.012Z,93405.91
2023-03-29T11:51:38.882Z,93404.63
2023-03-29T11:54:55.240Z,93400.47
2023-03-29T11:58:07.386Z,93408.09
2023-03-29T12:01:24.305Z,93400.59
2023-03-29T12:04:34.538Z,93393.69
2023-03-29T12:07:44.641Z,93398.69
2023-03-29T12:10:54.136Z,93401.09
2023-03-29T12:14:11.191Z,93412.13
2023-03-29T12:17:21.250Z,93403.09
2023-03-29T12:20:32.279Z,93411.13
2023-03-29T12:23:37.909Z,93414.75
2023-03-29T12:27:14.921Z,93413.44
2023-03-29T12:30:44.710Z,93408.03
2023-03-29T12:34:19.100Z,93406.84
2023-03-29T12:37:54.692Z,93409.16
2023-03-29T12:41:22.645Z,93402.56
2023-03-29T12:44:34.616Z,93404.53
2023-03-29T12:48:03.612Z,93416.41
2023-03-29T12:51:16.467Z,93409.06
2023-03-29T12:54:28.056Z,93405.41
2023-03-29T12:57:43.194Z,93408.13
2023-03-29T13:00:48.934Z,93405.22
2023-03-29T13:04:02.212Z,93402.03
2023-03-29T13:07:07.055Z,93403.63
2023-03-29T13:10:26.168Z,93405.00
2023-03-29T13:13:39.253Z,93401.41
2023-03-29T13:16:44.008Z,93403.56
2023-03-29T13:20:04.329Z,93401.84
2023-03-29T13:23:27.625Z,93405.09
2023-03-29T13:26:50.063Z,93408.81
2023-03-29T13:29:57.227Z,93406.28
2023-03-29T13:33:39.505Z,93394.94
2023-03-29T13:37:24.760Z,93399.34
2023-03-29T13:40:30.771Z,93395.69
2023-03-29T13:43:52.600Z,93393.88
2023-03-29T13:47:05.661Z,93395.75
2023-03-29T13:50:38.786Z,93388.81
2023-03-29T13:53:52.711Z,93395.63
2023-03-29T13:57:22.373Z,93393.06
2023-03-29T14:01:02.687Z,93397.53
2023-03-29T14:04:10.630Z,93388.78
2023-03-29T14:07:16.311Z,93385.06
2023-03-29T14:10:28.274Z,93390.84
2023-03-29T14:13:32.333Z,93386.84
2023-03-29T14:16:39.325Z,93380.03
2023-03-29T14:19:46.198Z,93385.28
2023-03-29T14:22:51.341Z,93388.06
2023-03-29T14:25:55.847Z,93381.63
2023-03-29T14:29:25.569Z,93382.84
2023-03-29T14:32:32.135Z,93376.56
2023-03-29T14:35:35.277Z,93378.91
2023-03-29T14:38:40.647Z,93380.16
2023-03-29T14:41:52.140Z,93384.47
2023-03-29T14:45:03.241Z,93376.03
2023-03-29T14:48:06.775Z,93380.66
2023-03-29T14:51:11.294Z,93380.78
2023-03-29T14:54:23.218Z,93387.03
2023-03-29T14:57:29.739Z,93385.72
2023-03-29T15:00:45.359Z,93385.78
2023-03-29T15:04:05.374Z,93385.94
2023-03-29T15:07:09.990Z,93381.84
2023-03-29T15:10:20.050Z,93373.69
2023-03-29T15:13:25.473Z,93369.50
2023-03-29T15:16:33.933Z,93370.63
2023-03-29T15:19:37.765Z,93369.13
2023-03-29T15:22:53.773Z,93361.53
2023-03-29T15:26:00.013Z,93365.47
2023-03-29T15:29:08.994Z,93368.66
2023-03-29T15:32:23.160Z,93353.44
2023-03-29T15:35:26.704Z,93352.00
2023-03-29T15:38:40.500Z,93353.84
2023-03-29T15:41:49.946Z,93343.03
2023-03-29T15:44:57.083Z,93340.06
2023-03-29T15:48:05.214Z,93337.91
2023-03-29T15:51:08.600Z,93335.41
2023-03-29T15:54:11.585Z,93321.69
2023-03-29T15:57:16.952Z,93326.09
2023-03-29T16:00:21.663Z,93329.81
2023-03-29T16:03:27.870Z,93322.50
2023-03-29T16:06:32.262Z,93320.38
2023-03-29T16:09:35.820Z,93328.31
2023-03-29T16:12:39.300Z,93329.13
2023-03-29T16:15:44.190Z,93329.59
2023-03-29T16:18:48.033Z,93326.78
2023-03-29T16:21:53.713Z,93324.50
2023-03-29T16:24:57.585Z,93321.91
2023-03-29T16:28:02.425Z,93319.84
2023-03-29T16:31:06.819Z,93324.59
2023-03-29T16:34:14.172Z,93317.16
2023-03-29T16:37:17.745Z,93322.53
2023-03-29T16:40:22.038Z,93317.63
2023-03-29T16:43:26.308Z,93327.25
2023-03-29T16:46:30.398Z,93326.34
2023-03-29T16:49:33.569Z,93325.84
2023-03-29T16:52:38.691Z,93326.97
2023-03-29T16:55:43.298Z,93318.25
2023-03-29T16:58:47.797Z,93319.94
2023-03-29T17:01:51.052Z,93321.25
2023-03-29T17:04:55.145Z,93325.53
2023-03-29T17:07:58.220Z,93328.78
2023-03-29T17:11:03.045Z,93321.88
2023-03-29T17:14:06.272Z,93323.13
2023-03-29T17:17:09.668Z,93322.53
2023-03-29T17:20:12.980Z,93313.88
2023-03-29T17:23:16.928Z,93326.59
2023-03-29T17:26:19.861Z,93324.22
2023-03-29T17:29:23.948Z,93319.16
2023-03-29T17:32:27.278Z,93326.28
2023-03-29T17:35:31.661Z,93332.34
2023-03-29T17:38:35.722Z,93344.09
2023-03-29T17:41:38.662Z,93336.66
2023-03-29T17:44:41.604Z,93334.03
2023-03-29T17:47:44.552Z,93328.66
2023-03-29T17:50:48.663Z,93337.28
2023-03-29T17:53:52.607Z,93340.06
2023-03-29T17:56:56.784Z,93332.41
2023-03-29T17:59:59.819Z,93338.91
2023-03-29T18:03:03.369Z,93332.66
2023-03-29T18:06:07.366Z,93339.22
2023-03-29T18:09:11.039Z,93324.84
2023-03-29T18:12:13.861Z,93330.56
2023-03-29T18:15:18.018Z,93328.53
2023-03-29T18:18:21.697Z,93329.38
2023-03-29T18:21:26.902Z,93325.16
2023-03-29T18:24:31.133Z,93323.88
2023-03-29T18:27:34.855Z,93327.81
2023-03-29T18:30:38.428Z,93329.16
2023-03-29T18:33:42.380Z,93332.13
2023-03-29T18:36:45.996Z,93333.88
2023-03-29T18:39:49.686Z,93343.84
2023-03-29T18:42:53.694Z,93340.25
2023-03-29T18:45:57.666Z,93347.66
2023-03-29T18:49:02.484Z,93355.06
2023-03-29T18:52:06.370Z,93355.06
2023-03-29T18:55:11.096Z,93352.06
2023-03-29T18:58:15.595Z,93344.47
2023-03-29T19:01:18.861Z,93344.91
2023-03-29T19:04:23.957Z,93350.72
2023-03-29T19:07:29.136Z,93345.72
2023-03-29T19:10:36.803Z,93347.97
2023-03-29T19:13:40.580Z,93350.53
2023-03-29T19:16:44.127Z,93360.41
2023-03-29T19:19:48.096Z,93369.56
2023-03-29T19:22:52.434Z,93351.16
2023-03-29T19:26:03.439Z,93354.03
2023-03-29T19:29:07.386Z,93358.75
2023-03-29T19:32:10.757Z,93360.03
2023-03-29T19:35:14.594Z,93352.41
2023-03-29T19:38:18.683Z,93358.75
2023-03-29T19:41:22.627Z,93366.97
2023-03-29T19:44:26.669Z,93371.69
2023-03-29T19:47:30.542Z,93376.34
2023-03-29T19:50:34.551Z,93368.53
2023-03-29T19:53:39.020Z,93369.44
2023-03-29T19:56:43.455Z,93370.00
2023-03-29T19:59:47.000Z,93366.47
2023-03-29T20:02:50.654Z,93367.81
2023-03-29T20:05:53.956Z,93370.28
2023-03-29T20:08:58.602Z,93362.91
2023-03-29T20:12:01.830Z,93362.78
2023-03-29T20:15:05.938Z,93364.63
2023-03-29T20:18:09.085Z,93365.34
2023-03-29T20:21:17.191Z,93373.06
2023-03-29T20:24:21.168Z,93388.16
2023-03-29T20:27:24.543Z,93385.41
2023-03-29T20:30:28.291Z,93374.88
2023-03-29T20:33:31.652Z,93372.84
2023-03-29T20:36:36.320Z,93369.75
2023-03-29T20:39:39.992Z,93365.09
2023-03-29T20:42:46.778Z,93373.34
2023-03-29T20:45:53.887Z,93383.94
2023-03-29T20:48:57.550Z,93377.03
2023-03-29T20:52:03.895Z,93381.94
2023-03-29T20:55:08.068Z,93388.22
2023-03-29T20:58:10.973Z,93391.91
2023-03-29T21:01:15.178Z,93389.34
2023-03-29T21:04:18.830Z,93385.03
2023-03-29T21:07:22.816Z,93382.53
2023-03-29T21:10:28.056Z,93385.53
2023-03-29T21:13:36.552Z,93394.38
2023-03-29T21:16:43.027Z,93389.00
2023-03-29T21:19:47.014Z,93386.88
2023-03-29T21:22:51.080Z,93385.56
2023-03-29T21:25:54.979Z,93386.78
2023-03-29T21:28:58.597Z,93383.16
2023-03-29T21:32:02.962Z,93384.41
2023-03-29T21:35:07.316Z,93377.69
2023-03-29T21:38:11.719Z,93378.16
2023-03-29T21:41:15.587Z,93381.13
2023-03-29T21:44:19.379Z,93383.84
2023-03-29T21:47:23.019Z,93383.75
2023-03-29T21:50:27.094Z,93374.81
2023-03-29T21:53:30.710Z,93376.66
2023-03-29T21:56:34.141Z,93378.09
2023-03-29T21:59:37.852Z,93380.25
2023-03-29T22:02:41.815Z,93378.88
2023-03-29T22:06:02.932Z,93382.38
2023-03-29T22:09:06.975Z,93380.84
2023-03-29T22:12:10.977Z,93383.22
2023-03-29T22:15:15.541Z,93393.25
2023-03-29T22:18:18.526Z,93389.06
2023-03-29T22:21:27.061Z,93388.53
2023-03-29T22:24:30.304Z,93399.25
2023-03-29T22:27:33.375Z,93389.72
2023-03-29T22:30:37.033Z,93395.44
2023-03-29T22:33:42.238Z,93392.47
2023-03-29T22:36:45.603Z,93399.28
2023-03-29T22:39:49.998Z,93397.59
2023-03-29T22:42:53.164Z,93394.41
2023-03-29T22:45:56.350Z,93390.72
2023-03-29T22:49:00.525Z,93398.34
2023-03-29T22:52:04.535Z,93405.03
2023-03-29T22:55:09.347Z,93406.47
2023-03-29T22:58:13.044Z,93407.50
2023-03-29T23:01:16.448Z,93405.53
2023-03-29T23:04:20.090Z,93400.44
2023-03-29T23:07:24.143Z,93399.34
2023-03-29T23:10:29.562Z,93392.69
2023-03-29T23:13:34.005Z,93404.72
2023-03-29T23:16:37.680Z,93412.16
2023-03-29T23:19:42.100Z,93418.22
2023-03-29T23:22:45.692Z,93422.88
2023-03-29T23:25:51.454Z,93420.22
2023-03-29T23:28:55.451Z,93422.50
2023-03-29T23:32:00.191Z,93425.00
2023-03-29T23:35:05.433Z,93415.47
2023-03-29T23:38:09.074Z,93427.69
2023-03-29T23:41:13.344Z,93421.59
2023-03-29T23:44:16.891Z,93437.75
2023-03-29T23:47:21.571Z,93440.34
2023-03-29T23:50:25.105Z,93424.84
2023-03-29T23:53:29.498Z,93426.56
2023-03-29T23:56:33.449Z,93418.84
2023-03-29T23:59:38.231Z,93427.69
